createdAt,value
2022-12-29T00:01:42.023Z,99627.13
2022-12-29T00:04:14.669Z,99629.50
2022-12-29T00:06:43.252Z,99609.94
2022-12-29T00:09:11.787Z,99601.13
2022-12-29T00:11:38.179Z,99605.16
2022-12-29T00:14:26.187Z,99605.94
2022-12-29T00:16:53.053Z,99604.38
2022-12-29T00:19:38.018Z,99607.56
2022-12-29T00:22:23.479Z,99605.16
2022-12-29T00:25:08.424Z,99595.19
2022-12-29T00:27:53.396Z,99586.03
2022-12-29T00:30:41.212Z,99594.81
2022-12-29T00:33:34.525Z,99585.63
2022-12-29T00:36:17.373Z,99577.63
2022-12-29T00:39:07.763Z,99560.06
2022-12-29T00:41:52.899Z,99564.06
2022-12-29T00:44:19.449Z,99559.66
2022-12-29T00:46:46.194Z,99567.66
2022-12-29T00:49:32.993Z,99567.69
2022-12-29T00:52:00.858Z,99577.28
2022-12-29T00:54:30.301Z,99579.28
2022-12-29T00:56:56.841Z,99576.50
2022-12-29T00:59:25.026Z,99585.28
2022-12-29T01:01:54.900Z,99572.09
2022-12-29T01:04:23.601Z,99552.13
2022-12-29T01:06:50.308Z,99553.34
2022-12-29T01:09:36.993Z,99554.16
2022-12-29T01:12:05.197Z,99554.97
2022-12-29T01:14:32.105Z,99548.16
2022-12-29T01:16:58.607Z,99550.16
2022-12-29T01:19:25.497Z,99554.13
2022-12-29T01:21:52.658Z,99553.34
2022-12-29T01:24:20.800Z,99552.16
2022-12-29T01:26:47.740Z,99558.16
2022-12-29T01:29:14.580Z,99549.75
2022-12-29T01:31:41.193Z,99552.53
2022-12-29T01:34:07.704Z,99545.72
2022-12-29T01:36:34.372Z,99552.97
2022-12-29T01:39:00.912Z,99544.94
2022-12-29T01:41:27.786Z,99540.50
2022-12-29T01:43:57.399Z,99530.53
2022-12-29T01:46:35.603Z,99539.72
2022-12-29T01:49:05.861Z,99539.72
2022-12-29T01:51:36.927Z,99535.31
2022-12-29T01:54:09.450Z,99521.34
2022-12-29T01:56:36.537Z,99519.75
2022-12-29T01:59:12.283Z,99533.75
2022-12-29T02:01:38.718Z,99519.75
2022-12-29T02:04:05.791Z,99535.34
2022-12-29T02:06:44.722Z,99518.97
2022-12-29T02:09:11.162Z,99516.97
2022-12-29T02:11:39.604Z,99522.56
2022-12-29T02:14:11.163Z,99514.97
2022-12-29T02:17:03.597Z,99510.16
2022-12-29T02:20:12.576Z,99508.97
2022-12-29T02:22:47.844Z,99496.97
2022-12-29T02:25:56.070Z,99498.97
2022-12-29T02:28:44.333Z,99495.78
2022-12-29T02:31:31.610Z,99489.38
2022-12-29T02:34:16.799Z,99480.16
2022-12-29T02:37:06.313Z,99474.97
2022-12-29T02:40:12.291Z,99485.75
2022-12-29T02:43:01.087Z,99476.19
2022-12-29T02:45:36.006Z,99482.56
2022-12-29T02:48:02.402Z,99480.56
2022-12-29T02:50:41.235Z,99490.56
2022-12-29T02:53:12.975Z,99488.97
2022-12-29T02:55:39.722Z,99492.94
2022-12-29T02:58:19.705Z,99496.16
2022-12-29T03:01:03.496Z,99475.38
2022-12-29T03:03:45.816Z,99488.56
2022-12-29T03:06:39.588Z,99483.34
2022-12-29T03:09:18.347Z,99483.75
2022-12-29T03:12:25.097Z,99478.16
2022-12-29T03:15:23.372Z,99477.72
2022-12-29T03:17:55.335Z,99482.97
2022-12-29T03:20:27.907Z,99476.53
2022-12-29T03:23:01.882Z,99473.34
2022-12-29T03:25:36.505Z,99475.75
2022-12-29T03:28:09.285Z,99465.34
2022-12-29T03:30:38.189Z,99473.75
2022-12-29T03:33:08.596Z,99464.94
2022-12-29T03:35:38.613Z,99466.94
2022-12-29T03:38:20.216Z,99466.94
2022-12-29T03:40:56.691Z,99460.13
2022-12-29T03:43:23.899Z,99461.31
2022-12-29T03:45:50.741Z,99466.13
2022-12-29T03:48:17.323Z,99454.13
2022-12-29T03:50:43.741Z,99452.50
2022-12-29T03:53:10.298Z,99450.50
2022-12-29T03:55:36.683Z,99436.47
2022-12-29T03:58:03.308Z,99440.06
2022-12-29T04:00:30.591Z,99440.50
2022-12-29T04:02:57.110Z,99439.69
2022-12-29T04:05:23.804Z,99441.69
2022-12-29T04:07:50.260Z,99452.13
2022-12-29T04:10:16.657Z,99442.50
2022-12-29T04:12:43.076Z,99443.72
2022-12-29T04:15:11.076Z,99425.72
2022-12-29T04:17:37.494Z,99435.34
2022-12-29T04:20:23.209Z,99438.16
2022-12-29T04:22:49.667Z,99437.75
2022-12-29T04:25:16.369Z,99435.38
2022-12-29T04:27:42.797Z,99427.00
2022-12-29T04:30:10.259Z,99412.19
2022-12-29T04:32:36.888Z,99403.38
2022-12-29T04:35:03.668Z,99408.19
2022-12-29T04:37:30.269Z,99393.00
2022-12-29T04:39:56.781Z,99395.41
2022-12-29T04:42:23.531Z,99390.22
2022-12-29T04:44:49.977Z,99392.59
2022-12-29T04:47:16.351Z,99390.59
2022-12-29T04:49:43.699Z,99382.19
2022-12-29T04:52:10.478Z,99373.78
2022-12-29T04:54:37.727Z,99380.19
2022-12-29T04:57:04.300Z,99373.41
2022-12-29T04:59:30.653Z,99390.63
2022-12-29T05:01:57.100Z,99391.00
2022-12-29T05:04:25.127Z,99381.03
2022-12-29T05:06:52.502Z,99386.59
2022-12-29T05:09:18.823Z,99391.81
2022-12-29T05:11:45.365Z,99389.78
2022-12-29T05:14:11.927Z,99387.38
2022-12-29T05:16:38.652Z,99385.75
2022-12-29T05:19:05.040Z,99391.78
2022-12-29T05:21:31.415Z,99393.75
2022-12-29T05:23:58.312Z,99392.16
2022-12-29T05:26:24.750Z,99398.94
2022-12-29T05:28:51.301Z,99400.53
2022-12-29T05:31:18.227Z,99396.94
2022-12-29T05:33:45.020Z,99403.31
2022-12-29T05:36:15.633Z,99403.28
2022-12-29T05:38:42.295Z,99394.50
2022-12-29T05:41:08.625Z,99409.25
2022-12-29T05:43:34.964Z,99399.25
2022-12-29T05:46:01.445Z,99393.25
2022-12-29T05:48:31.715Z,99396.84
2022-12-29T05:51:03.074Z,99414.44
2022-12-29T05:53:29.599Z,99409.22
2022-12-29T05:55:55.969Z,99424.00
2022-12-29T05:58:22.362Z,99438.44
2022-12-29T06:00:48.769Z,99429.63
2022-12-29T06:03:15.195Z,99446.00
2022-12-29T06:05:41.588Z,99448.81
2022-12-29T06:08:07.894Z,99439.97
2022-12-29T06:10:34.234Z,99439.19
2022-12-29T06:13:00.770Z,99445.16
2022-12-29T06:15:27.105Z,99449.19
2022-12-29T06:17:53.469Z,99439.94
2022-12-29T06:20:19.995Z,99438.34
2022-12-29T06:22:47.485Z,99443.16
2022-12-29T06:25:13.998Z,99446.75
2022-12-29T06:27:40.570Z,99454.34
2022-12-29T06:30:07.640Z,99446.34
2022-12-29T06:32:34.071Z,99455.13
2022-12-29T06:35:00.541Z,99468.75
2022-12-29T06:37:27.245Z,99471.94
2022-12-29T06:39:53.661Z,99468.72
2022-12-29T06:42:20.048Z,99467.50
2022-12-29T06:44:46.606Z,99476.75
2022-12-29T06:47:13.238Z,99480.72
2022-12-29T06:49:39.721Z,99476.72
2022-12-29T06:52:10.780Z,99493.53
2022-12-29T06:54:38.896Z,99482.31
2022-12-29T06:57:05.218Z,99479.50
2022-12-29T06:59:31.569Z,99492.34
2022-12-29T07:01:58.274Z,99497.97
2022-12-29T07:04:24.945Z,99503.56
2022-12-29T07:06:51.638Z,99510.41
2022-12-29T07:09:18.013Z,99506.75
2022-12-29T07:11:46.062Z,99508.41
2022-12-29T07:14:12.748Z,99515.22
2022-12-29T07:16:39.910Z,99493.56
2022-12-29T07:19:06.905Z,99503.19
2022-12-29T07:21:33.643Z,99505.22
2022-12-29T07:24:00.349Z,99504.38
2022-12-29T07:26:29.260Z,99510.81
2022-12-29T07:29:01.512Z,99524.84
2022-12-29T07:31:27.972Z,99508.41
2022-12-29T07:33:55.067Z,99516.44
2022-12-29T07:36:22.078Z,99522.03
2022-12-29T07:38:48.737Z,99527.22
2022-12-29T07:41:15.234Z,99534.06
2022-12-29T07:43:41.759Z,99537.69
2022-12-29T07:46:13.241Z,99532.47
2022-12-29T07:48:56.397Z,99548.91
2022-12-29T07:51:23.074Z,99546.88
2022-12-29T07:53:50.522Z,99548.88
2022-12-29T07:56:17.063Z,99553.28
2022-12-29T07:58:44.132Z,99558.06
2022-12-29T08:01:10.498Z,99558.06
2022-12-29T08:03:39.223Z,99566.53
2022-12-29T08:06:05.837Z,99554.50
2022-12-29T08:08:32.214Z,99578.53
2022-12-29T08:10:58.906Z,99574.53
2022-12-29T08:13:25.445Z,99574.53
2022-12-29T08:15:51.895Z,99592.16
2022-12-29T08:18:18.460Z,99587.75
2022-12-29T08:20:44.997Z,99598.56
2022-12-29T08:23:11.354Z,99597.75
2022-12-29T08:25:37.709Z,99593.34
2022-12-29T08:28:04.128Z,99596.53
2022-12-29T08:30:30.672Z,99592.94
2022-12-29T08:32:57.181Z,99606.56
2022-12-29T08:35:23.578Z,99597.34
2022-12-29T08:37:49.912Z,99599.75
2022-12-29T08:40:16.343Z,99590.16
2022-12-29T08:42:42.799Z,99602.56
2022-12-29T08:45:09.977Z,99606.56
2022-12-29T08:47:36.613Z,99604.56
2022-12-29T08:50:03.652Z,99607.38
2022-12-29T08:52:30.410Z,99611.34
2022-12-29T08:54:56.826Z,99607.34
2022-12-29T08:57:23.189Z,99611.78
2022-12-29T08:59:50.159Z,99620.19
2022-12-29T09:02:23.746Z,99618.97
2022-12-29T09:04:51.422Z,99602.97
2022-12-29T09:07:17.819Z,99608.16
2022-12-29T09:09:44.263Z,99609.75
2022-12-29T09:12:10.660Z,99607.34
2022-12-29T09:14:37.135Z,99605.75
2022-12-29T09:17:22.271Z,99604.56
2022-12-29T09:19:48.892Z,99623.75
2022-12-29T09:22:15.423Z,99630.16
2022-12-29T09:24:41.950Z,99619.38
2022-12-29T09:27:08.292Z,99648.19
2022-12-29T09:29:34.645Z,99653.78
2022-12-29T09:32:01.542Z,99644.19
2022-12-29T09:34:28.182Z,99648.97
2022-12-29T09:36:54.813Z,99644.19
2022-12-29T09:39:21.164Z,99649.00
2022-12-29T09:42:20.350Z,99656.59
2022-12-29T09:44:57.366Z,99655.00
2022-12-29T09:47:26.248Z,99661.00
2022-12-29T09:49:57.307Z,99662.19
2022-12-29T09:52:31.141Z,99660.59
2022-12-29T09:55:05.271Z,99664.59
2022-12-29T09:57:41.898Z,99663.00
2022-12-29T10:00:37.829Z,99666.59
2022-12-29T10:03:15.675Z,99655.41
2022-12-29T10:05:59.054Z,99656.59
2022-12-29T10:08:33.082Z,99652.59
2022-12-29T10:11:09.905Z,99651.41
2022-12-29T10:14:02.940Z,99648.19
2022-12-29T10:17:02.494Z,99655.00
2022-12-29T10:20:02.459Z,99663.81
2022-12-29T10:22:50.426Z,99657.00
2022-12-29T10:25:20.888Z,99662.63
2022-12-29T10:27:53.929Z,99645.78
2022-12-29T10:30:20.498Z,99651.41
2022-12-29T10:32:58.688Z,99652.22
2022-12-29T10:35:35.024Z,99642.59
2022-12-29T10:38:19.495Z,99653.78
2022-12-29T10:40:58.166Z,99634.16
2022-12-29T10:43:37.221Z,99637.75
2022-12-29T10:46:07.797Z,99647.34
2022-12-29T10:48:35.816Z,99644.16
2022-12-29T10:51:06.018Z,99645.75
2022-12-29T10:53:47.476Z,99641.75
2022-12-29T10:56:45.309Z,99644.56
2022-12-29T10:59:16.700Z,99638.13
2022-12-29T11:01:57.013Z,99648.94
2022-12-29T11:04:44.915Z,99654.94
2022-12-29T11:07:16.095Z,99649.31
2022-12-29T11:09:45.502Z,99652.50
2022-12-29T11:12:27.983Z,99666.16
2022-12-29T11:15:15.249Z,99662.56
2022-12-29T11:17:53.304Z,99660.53
2022-12-29T11:20:43.143Z,99657.34
2022-12-29T11:23:37.576Z,99668.16
2022-12-29T11:26:21.461Z,99656.94
2022-12-29T11:29:06.839Z,99675.78
2022-12-29T11:31:43.664Z,99680.22
2022-12-29T11:34:17.409Z,99683.03
2022-12-29T11:36:43.953Z,99674.59
2022-12-29T11:39:26.838Z,99689.03
2022-12-29T11:41:54.879Z,99689.84
2022-12-29T11:44:22.002Z,99688.25
2022-12-29T11:46:52.314Z,99694.66
2022-12-29T11:49:26.990Z,99699.06
2022-12-29T11:51:58.455Z,99691.84
2022-12-29T11:54:28.560Z,99699.88
2022-12-29T11:56:56.148Z,99691.88
2022-12-29T11:59:28.365Z,99692.66
2022-12-29T12:01:55.678Z,99702.69
2022-12-29T12:04:25.918Z,99709.91
2022-12-29T12:07:02.375Z,99721.91
2022-12-29T12:09:51.316Z,99719.09
2022-12-29T12:12:36.950Z,99715.50
2022-12-29T12:15:04.664Z,99718.69
2022-12-29T12:17:38.282Z,99703.47
2022-12-29T12:20:16.903Z,99718.28
2022-12-29T12:22:53.010Z,99724.31
2022-12-29T12:25:26.877Z,99723.91
2022-12-29T12:28:20.782Z,99713.91
2022-12-29T12:30:53.899Z,99727.50
2022-12-29T12:33:27.032Z,99734.31
2022-12-29T12:36:18.402Z,99725.91
2022-12-29T12:39:10.755Z,99736.34
2022-12-29T12:41:55.412Z,99737.94
2022-12-29T12:44:32.869Z,99749.94
2022-12-29T12:47:19.646Z,99743.53
2022-12-29T12:50:13.349Z,99750.34
2022-12-29T12:53:02.718Z,99750.34
2022-12-29T12:55:50.858Z,99751.94
2022-12-29T12:58:32.102Z,99751.94
2022-12-29T13:01:15.444Z,99761.13
2022-12-29T13:04:00.449Z,99757.16
2022-12-29T13:06:50.448Z,99758.31
2022-12-29T13:09:34.591Z,99769.13
2022-12-29T13:12:30.722Z,99760.31
2022-12-29T13:15:09.966Z,99767.53
2022-12-29T13:17:53.643Z,99777.94
2022-12-29T13:20:23.449Z,99776.75
2022-12-29T13:23:19.300Z,99776.34
2022-12-29T13:25:57.125Z,99800.75
2022-12-29T13:28:48.864Z,99782.75
2022-12-29T13:31:47.450Z,99786.31
2022-12-29T13:34:47.828Z,99786.72
2022-12-29T13:37:19.136Z,99791.94
2022-12-29T13:40:04.359Z,99794.31
2022-12-29T13:42:31.243Z,99777.09
2022-12-29T13:45:06.203Z,99791.09
2022-12-29T13:47:41.931Z,99795.53
2022-12-29T13:50:36.675Z,99791.91
2022-12-29T13:53:03.032Z,99793.91
2022-12-29T13:55:37.301Z,99797.13
2022-12-29T13:58:26.369Z,99796.72
2022-12-29T14:01:02.030Z,99803.94
2022-12-29T14:03:49.065Z,99804.31
2022-12-29T14:06:22.006Z,99805.94
2022-12-29T14:08:49.655Z,99828.75
2022-12-29T14:11:18.878Z,99821.53
2022-12-29T14:13:47.959Z,99808.72
2022-12-29T14:16:30.534Z,99835.94
2022-12-29T14:19:05.805Z,99839.94
2022-12-29T14:21:34.433Z,99839.53
2022-12-29T14:24:19.181Z,99835.94
2022-12-29T14:26:46.413Z,99839.94
2022-12-29T14:29:42.941Z,99857.53
2022-12-29T14:32:23.321Z,99851.53
2022-12-29T14:34:52.637Z,99855.50
2022-12-29T14:37:39.943Z,99856.72
2022-12-29T14:40:39.833Z,99869.91
2022-12-29T14:43:14.413Z,99859.09
2022-12-29T14:45:43.735Z,99853.50
2022-12-29T14:48:25.766Z,99867.88
2022-12-29T14:50:52.417Z,99870.28
2022-12-29T14:53:51.831Z,99867.06
2022-12-29T14:56:21.148Z,99869.09
2022-12-29T14:58:53.114Z,99871.47
2022-12-29T15:01:44.190Z,99872.25
2022-12-29T15:04:21.698Z,99880.25
2022-12-29T15:06:50.695Z,99881.06
2022-12-29T15:09:37.191Z,99883.47
2022-12-29T15:12:31.803Z,99880.25
2022-12-29T15:15:01.648Z,99879.88
2022-12-29T15:17:33.983Z,99867.44
2022-12-29T15:20:14.813Z,99877.84
2022-12-29T15:22:53.623Z,99889.00
2022-12-29T15:25:20.131Z,99890.66
2022-12-29T15:27:52.627Z,99879.81
2022-12-29T15:30:19.659Z,99884.22
2022-12-29T15:32:48.292Z,99885.81
2022-12-29T15:35:28.835Z,99884.59
2022-12-29T15:37:55.432Z,99881.41
2022-12-29T15:40:35.369Z,99877.38
2022-12-29T15:43:47.024Z,99882.59
2022-12-29T15:46:14.671Z,99876.19
2022-12-29T15:48:41.514Z,99881.00
2022-12-29T15:51:29.567Z,99877.34
2022-12-29T15:53:56.275Z,99882.59
2022-12-29T15:56:22.969Z,99892.59
2022-12-29T15:58:52.411Z,99880.16
2022-12-29T16:01:24.684Z,99893.75
2022-12-29T16:03:52.385Z,99895.38
2022-12-29T16:06:32.804Z,99893.38
2022-12-29T16:09:32.846Z,99896.53
2022-12-29T16:12:06.095Z,99896.97
2022-12-29T16:14:44.639Z,99896.13
2022-12-29T16:17:13.746Z,99898.97
2022-12-29T16:19:42.246Z,99904.16
2022-12-29T16:22:35.553Z,99887.75
2022-12-29T16:25:15.628Z,99908.94
2022-12-29T16:27:43.807Z,99920.94
2022-12-29T16:30:32.818Z,99928.13
2022-12-29T16:33:03.135Z,99919.34
2022-12-29T16:35:47.549Z,99924.09
2022-12-29T16:38:22.597Z,99928.91
2022-12-29T16:41:07.266Z,99926.06
2022-12-29T16:43:38.516Z,99933.28
2022-12-29T16:46:22.589Z,99928.84
2022-12-29T16:48:53.917Z,99929.66
2022-12-29T16:51:30.892Z,99924.44
2022-12-29T16:53:58.032Z,99929.22
2022-12-29T16:56:28.541Z,99940.75
2022-12-29T16:59:03.481Z,99938.72
2022-12-29T17:01:30.253Z,99934.72
2022-12-29T17:04:05.467Z,99945.47
2022-12-29T17:06:33.268Z,99940.66
2022-12-29T17:08:59.935Z,99945.41
2022-12-29T17:11:58.523Z,99961.34
2022-12-29T17:14:37.124Z,99956.47
2022-12-29T17:17:14.908Z,99963.22
2022-12-29T17:19:45.283Z,99953.19
2022-12-29T17:22:22.568Z,99963.13
2022-12-29T17:24:49.013Z,99959.94
2022-12-29T17:27:31.790Z,99972.25
2022-12-29T17:30:02.159Z,99976.66
2022-12-29T17:32:30.685Z,99974.66
2022-12-29T17:34:57.031Z,99978.28
2022-12-29T17:37:31.427Z,99974.66
2022-12-29T17:39:57.934Z,99975.50
2022-12-29T17:42:24.865Z,99972.31
2022-12-29T17:44:51.416Z,99986.31
2022-12-29T17:47:17.987Z,99986.75
2022-12-29T17:49:46.284Z,100006.72
2022-12-29T17:52:14.663Z,100059.50
2022-12-29T17:54:51.316Z,100029.13
2022-12-29T17:57:20.539Z,100049.88
2022-12-29T17:59:47.244Z,100033.00
2022-12-29T18:02:19.811Z,100043.63
2022-12-29T18:04:46.461Z,100043.50
2022-12-29T18:07:13.042Z,100059.28
2022-12-29T18:09:39.411Z,100054.31
2022-12-29T18:12:09.339Z,100062.47
2022-12-29T18:14:35.706Z,100054.28
2022-12-29T18:17:02.036Z,100061.28
2022-12-29T18:19:33.940Z,100073.44
2022-12-29T18:22:02.543Z,100070.88
2022-12-29T18:24:28.949Z,100066.28
2022-12-29T18:26:55.359Z,100075.72
2022-12-29T18:29:21.845Z,100083.97
2022-12-29T18:31:48.384Z,100100.59
2022-12-29T18:34:17.005Z,100102.03
2022-12-29T18:36:43.819Z,100104.72
2022-12-29T18:39:11.580Z,100077.13
2022-12-29T18:41:37.909Z,100064.56
2022-12-29T18:44:04.503Z,100068.38
2022-12-29T18:46:30.870Z,100080.59
2022-12-29T18:48:57.396Z,100080.06
2022-12-29T18:51:25.274Z,100085.13
2022-12-29T18:53:55.549Z,100090.25
2022-12-29T18:56:23.303Z,100096.56
2022-12-29T18:58:50.255Z,100097.75
2022-12-29T19:01:25.391Z,100098.47
2022-12-29T19:03:53.150Z,100097.66
2022-12-29T19:06:21.103Z,100101.63
2022-12-29T19:08:47.647Z,100104.41
2022-12-29T19:11:17.804Z,100097.22
2022-12-29T19:13:44.260Z,100097.56
2022-12-29T19:16:19.426Z,100108.69
2022-12-29T19:18:53.378Z,100099.13
2022-12-29T19:21:30.382Z,100090.34
2022-12-29T19:23:56.689Z,100098.25
2022-12-29T19:26:32.578Z,100106.91
2022-12-29T19:28:59.943Z,100116.06
2022-12-29T19:31:26.589Z,100109.25
2022-12-29T19:33:53.485Z,100105.19
2022-12-29T19:36:22.056Z,100106.75
2022-12-29T19:38:48.334Z,100107.91
2022-12-29T19:41:16.152Z,100110.34
2022-12-29T19:43:42.795Z,100111.88
2022-12-29T19:46:11.576Z,100117.34
2022-12-29T19:48:38.051Z,100116.53
2022-12-29T19:51:13.446Z,100119.28
2022-12-29T19:53:41.110Z,100136.00
2022-12-29T19:56:11.284Z,100120.41
2022-12-29T19:58:43.875Z,100123.22
2022-12-29T20:01:16.253Z,100130.75
2022-12-29T20:03:44.409Z,100128.34
2022-12-29T20:06:11.588Z,100137.13
2022-12-29T20:08:38.897Z,100127.16
2022-12-29T20:11:17.514Z,100135.53
2022-12-29T20:13:44.695Z,100139.91
2022-12-29T20:16:16.693Z,100129.16
2022-12-29T20:18:44.075Z,100132.84
2022-12-29T20:21:23.855Z,100144.34
2022-12-29T20:23:52.032Z,100150.78
2022-12-29T20:26:27.783Z,100156.00
2022-12-29T20:28:54.776Z,100156.06
2022-12-29T20:31:27.710Z,100169.19
2022-12-29T20:33:54.453Z,100160.94
2022-12-29T20:36:26.783Z,100157.34
2022-12-29T20:38:54.822Z,100166.13
2022-12-29T20:41:22.850Z,100164.97
2022-12-29T20:43:50.598Z,100170.56
2022-12-29T20:46:20.895Z,100167.75
2022-12-29T20:48:49.333Z,100169.38
2022-12-29T20:51:16.418Z,100176.13
2022-12-29T20:53:42.778Z,100174.13
2022-12-29T20:56:15.964Z,100176.47
2022-12-29T20:59:17.145Z,100177.38
2022-12-29T21:01:29.041Z,100184.91
2022-12-29T21:03:55.752Z,100182.13
2022-12-29T21:06:22.930Z,100185.72
2022-12-29T21:08:57.497Z,100182.13
2022-12-29T21:11:24.416Z,100184.53
2022-12-29T21:13:50.755Z,100190.13
2022-12-29T21:16:20.887Z,100188.50
2022-12-29T21:18:48.881Z,100189.69
2022-12-29T21:21:21.699Z,100195.63
2022-12-29T21:23:48.496Z,100202.00
2022-12-29T21:26:18.541Z,100195.97
2022-12-29T21:28:46.163Z,100194.38
2022-12-29T21:31:28.386Z,100201.91
2022-12-29T21:33:56.081Z,100203.91
2022-12-29T21:36:22.675Z,100209.00
2022-12-29T21:38:50.875Z,100207.88
2022-12-29T21:41:18.308Z,100201.81
2022-12-29T21:44:08.761Z,100207.78
2022-12-29T21:46:37.310Z,100210.94
2022-12-29T21:49:04.696Z,100218.09
2022-12-29T21:51:49.913Z,100210.19
2022-12-29T21:54:41.532Z,100218.47
2022-12-29T21:57:09.189Z,100220.00
2022-12-29T21:59:54.385Z,100220.00
2022-12-29T22:02:44.103Z,100236.63
2022-12-29T22:05:33.714Z,100236.19
2022-12-29T22:08:20.770Z,100222.25
2022-12-29T22:11:06.977Z,100227.03
2022-12-29T22:13:35.685Z,100230.97
2022-12-29T22:16:08.604Z,100236.09
2022-12-29T22:18:35.112Z,100233.31
2022-12-29T22:21:10.311Z,100234.00
2022-12-29T22:23:38.117Z,100243.19
2022-12-29T22:26:09.041Z,100237.97
2022-12-29T22:28:37.979Z,100249.09
2022-12-29T22:31:21.614Z,100246.69
2022-12-29T22:33:48.106Z,100244.72
2022-12-29T22:36:14.620Z,100251.47
2022-12-29T22:38:41.004Z,100257.41
2022-12-29T22:41:07.340Z,100261.00
2022-12-29T22:43:33.890Z,100272.47
2022-12-29T22:46:04.957Z,100283.16
2022-12-29T22:48:33.291Z,100285.94
2022-12-29T22:51:00.239Z,100280.75
2022-12-29T22:53:27.085Z,100277.13
2022-12-29T22:56:11.037Z,100287.03
2022-12-29T22:58:45.771Z,100281.91
2022-12-29T23:01:14.996Z,100280.38
2022-12-29T23:03:42.162Z,100276.06
2022-12-29T23:06:12.363Z,100288.03
2022-12-29T23:08:39.526Z,100289.28
2022-12-29T23:11:08.792Z,100296.47
2022-12-29T23:13:35.711Z,100284.97
2022-12-29T23:16:02.290Z,100300.84
2022-12-29T23:18:28.842Z,100304.00
2022-12-29T23:20:55.358Z,100307.16
2022-12-29T23:23:48.476Z,100315.06
2022-12-29T23:26:16.327Z,100321.00
2022-12-29T23:28:43.211Z,100329.72
2022-12-29T23:31:10.301Z,100331.22
2022-12-29T23:33:36.930Z,100334.72
2022-12-29T23:36:04.079Z,100341.81
2022-12-29T23:38:30.733Z,100346.94
2022-12-29T23:40:57.363Z,100355.28
2022-12-29T23:43:23.960Z,100366.78
2022-12-29T23:45:51.297Z,100360.38
2022-12-29T23:48:18.200Z,100365.53
2022-12-29T23:50:44.616Z,100368.31
2022-12-29T23:53:11.858Z,100368.31
2022-12-29T23:55:42.777Z,100388.50
2022-12-29T23:58:09.737Z,100382.13
